WetterOnline ( https://www.wetteronline.de )

Wetter aktuell Allmendingen

Aktuelles Wetter: Ulm-Mähringen (592m)

6-stündlich | Neueste Meldungen
Ortszeit Temperatur Wetter
So, 14.08. 8:00 15.0° C leicht bewölkt
So, 14.08. 2:00 10.5° C wolkenlos
Sa, 13.08. 20:00 23.4° C leicht bewölkt
Sa, 13.08. 14:00 24.6° C wolkenlos
Sa, 13.08. 8:00 15.3° C wolkenlos
Sa, 13.08. 2:00 10.4° C wolkenlos
Fr, 12.08. 20:00 22.6° C wolkenlos
Fr, 12.08. 14:00 24.2° C wolkenlos
Ortszeit Temperatur Wetter
So, 14.08. 10:30 22.4° C fast wolkenlos
So, 14.08. 10:20 22.4° C fast wolkenlos
So, 14.08. 10:10 21.6° C leicht bewölkt
So, 14.08. 10:00 21.1° C fast wolkenlos
So, 14.08. 9:50 21.1° C fast wolkenlos
So, 14.08. 9:40 20.4° C wolkenlos
So, 14.08. 9:30 19.6° C fast wolkenlos
So, 14.08. 9:00 18.8° C leicht bewölkt
So, 14.08. 8:30 17.6° C wolkig
So, 14.08. 8:00 15.0° C leicht bewölkt
So, 14.08. 7:30 11.5° C leicht bewölkt
Ortszeit Relative Feuchte Sichtweite
So, 14.08. 8:00 68% 60 km
So, 14.08. 2:00 85% 65 km
Sa, 13.08. 20:00 35% >70 km
Sa, 13.08. 14:00 36% >70 km
Sa, 13.08. 8:00 68% 60 km
Sa, 13.08. 2:00 82% >70 km
Fr, 12.08. 20:00 33% >70 km
Fr, 12.08. 14:00 33% >70 km
Ortszeit Relative Feuchte Sichtweite
So, 14.08. 10:30 44% 60 km
So, 14.08. 10:20 44% -
So, 14.08. 10:10 44% -
So, 14.08. 10:00 47% >70 km
So, 14.08. 9:50 47% -
So, 14.08. 9:40 47% -
So, 14.08. 9:30 50% >70 km
So, 14.08. 9:00 53% >70 km
So, 14.08. 8:30 58% 55 km
So, 14.08. 8:00 68% 60 km
So, 14.08. 7:30 77% 60 km
Ortszeit Niederschlagsmenge Niederschlagsart
So, 14.08. 8:00 0.0 l/m2 in 12 Std. -
So, 14.08. 2:00 0.0 l/m2 in 6 Std. -
Sa, 13.08. 20:00 0.0 l/m2 in 12 Std. -
Sa, 13.08. 14:00 0.0 l/m2 in 6 Std. -
Sa, 13.08. 8:00 0.0 l/m2 in 12 Std. -
Sa, 13.08. 2:00 0.0 l/m2 in 6 Std. -
Fr, 12.08. 20:00 0.0 l/m2 in 12 Std. -
Fr, 12.08. 14:00 0.0 l/m2 in 6 Std. -
Ortszeit Niederschlagsmenge Niederschlagsart
So, 14.08. 10:30 0.0 l/m2 in 1 Std. -
So, 14.08. 10:20 keine Meldung -
So, 14.08. 10:10 keine Meldung -
So, 14.08. 10:00 0.0 l/m2 in 1 Std. -
So, 14.08. 9:50 keine Meldung -
So, 14.08. 9:40 keine Meldung -
So, 14.08. 9:30 0.0 l/m2 in 1 Std. -
So, 14.08. 9:00 0.0 l/m2 in 1 Std. -
So, 14.08. 8:30 0.0 l/m2 in 1 Std. -
So, 14.08. 8:00 0.0 l/m2 in 1 Std. -
So, 14.08. 7:30 0.0 l/m2 in 1 Std. -
Ortszeit Stärke Spitze Richtung
km/h Bft. km/h Grad Sektor
So, 14.08. 8:00 4 1 7 320° NW
So, 14.08. 2:00 4 1 14 290° W
Sa, 13.08. 20:00 7 2 32 140° SO
Sa, 13.08. 14:00 17 3 37 100° O
Sa, 13.08. 8:00 7 2 11 50° NO
Sa, 13.08. 2:00 4 1 29 350° N
Fr, 12.08. 20:00 13 3 39 80° O
Fr, 12.08. 14:00 18 3 40 80° O
Ortszeit Stärke Spitze Richtung
km/h Bft. km/h Grad Sektor
So, 14.08. 10:30 14 3 22 80° O
So, 14.08. 10:20 14 3 - 80° O
So, 14.08. 10:10 13 3 - 90° O
So, 14.08. 10:00 13 3 20 80° O
So, 14.08. 9:50 13 3 - 80° O
So, 14.08. 9:40 13 3 - 80° O
So, 14.08. 9:30 11 2 14 90° O
So, 14.08. 9:00 7 2 11 70° O
So, 14.08. 8:30 7 2 11 40° NO
So, 14.08. 8:00 4 1 7 320° NW
So, 14.08. 7:30 4 1 7 300° NW
Ortszeit Untergrenze Bedeckung Gattung
total tief tief mittel hoch
So, 14.08. 8:00 9000 m 8/8 0/8 - - -
So, 14.08. 2:00 - 0/8 0/8 - - -
Sa, 13.08. 20:00 9000 m 5/8 0/8 - - -
Sa, 13.08. 14:00 - 0/8 0/8 - - -
Sa, 13.08. 8:00 - 0/8 0/8 - - -
Sa, 13.08. 2:00 - 0/8 0/8 - - -
Fr, 12.08. 20:00 - 0/8 0/8 - - -
Fr, 12.08. 14:00 - 0/8 0/8 - - -
Ortszeit Bedeckungsgrad in Achtel und Wolkenuntergrenze
So, 14.08. 10:30 1(9000m)
So, 14.08. 10:20 1(9000m)
So, 14.08. 10:10 2
So, 14.08. 10:00 1(10500m)
So, 14.08. 9:50 1(10500m)
So, 14.08. 9:40 keine Wolken
So, 14.08. 9:30 2(9000m)
So, 14.08. 9:00 8(9000m)
So, 14.08. 8:30 8(9000m) 8(10500m)
So, 14.08. 8:00 8(9000m)
So, 14.08. 7:30 6(9000m)
Ortszeit Luftdruck NN (hPa) Tendenz (hPa in 3 Std.)
So, 14.08. 8:00 1012 - 0,6
So, 14.08. 2:00 1016 - 0,4
Sa, 13.08. 20:00 1013 - 1,0
Sa, 13.08. 14:00 1014 - 0,6
Sa, 13.08. 8:00 1017 - 0,1
Sa, 13.08. 2:00 1019 - 0,4
Fr, 12.08. 20:00 1015 - 0,3
Fr, 12.08. 14:00 1016 - 1,0
Ortszeit Luftdruck NN (hPa) Tendenz (hPa in 3 Std.)
So, 14.08. 10:30 1009 - 0,7
So, 14.08. 10:20 1009 keine Meldung
So, 14.08. 10:10 1009 keine Meldung
So, 14.08. 10:00 1009 - 0,7
So, 14.08. 9:50 1009 keine Meldung
So, 14.08. 9:40 1010 keine Meldung
So, 14.08. 9:30 1010 - 0,5
So, 14.08. 9:00 1010 - 0,5
So, 14.08. 8:30 1011 - 0,5
So, 14.08. 8:00 1012 - 0,6
So, 14.08. 7:30 1013 - 1,2
Ortszeit Schneehöhe (cm)
So, 14.08. 8:00 0
So, 14.08. 2:00 0
Sa, 13.08. 20:00 0
Sa, 13.08. 14:00 0
Sa, 13.08. 8:00 0
Sa, 13.08. 2:00 0
Fr, 12.08. 20:00 0
Fr, 12.08. 14:00 0
Ortszeit Schneehöhe (cm)
So, 14.08. 10:30 0
So, 14.08. 10:20 0
So, 14.08. 10:10 0
So, 14.08. 10:00 0
So, 14.08. 9:50 0
So, 14.08. 9:40 0
So, 14.08. 9:30 0
So, 14.08. 9:00 0
So, 14.08. 8:30 0
So, 14.08. 8:00 0
So, 14.08. 7:30 0
Link zu dieser Seite / Seite empfehlen

Das Wetter in ...